Time;durP1;ratioP1;P1;durP2;ratioP2;P2;SDS_P1;SDS_P2;PMS_P1;PMS_P2;Temp;Humidity;BMP_temperature;BMP_pressure;BME280_temperature;BME280_humidity;BME280_pressure;Samples;Min_cycle;Max_cycle;Signal;HPM_P1;HPM_P2
2023/11/15 00:01:06;;;;;;;1.30;0.90;;;22.70;71.70;;;;;;5052752;28;20461;-84
2023/11/15 00:03:33;;;;;;;1.37;1.00;;;22.70;71.80;;;;;;5051450;28;20445;-85
2023/11/15 00:05:59;;;;;;;2.63;1.10;;;22.70;71.60;;;;;;5051820;28;20499;-84
2023/11/15 00:08:28;;;;;;;1.67;1.10;;;22.70;71.80;;;;;;5050568;28;20453;-84
2023/11/15 00:10:55;;;;;;;1.17;0.90;;;22.70;71.70;;;;;;5052501;28;20445;-84
2023/11/15 00:13:21;;;;;;;1.13;0.90;;;22.70;71.80;;;;;;5052828;28;20929;-84
2023/11/15 00:15:48;;;;;;;1.30;0.80;;;22.70;71.80;;;;;;5052777;28;21011;-84
2023/11/15 00:18:15;;;;;;;1.17;1.00;;;22.60;71.70;;;;;;5052717;28;20537;-84
2023/11/15 00:20:42;;;;;;;2.43;1.10;;;22.60;72.60;;;;;;5052797;28;20548;-84
2023/11/15 00:23:10;;;;;;;1.27;0.80;;;22.60;71.80;;;;;;5052423;28;20469;-84
2023/11/15 00:25:38;;;;;;;1.80;1.03;;;22.60;71.80;;;;;;5052737;28;20480;-84
2023/11/15 00:28:05;;;;;;;1.10;0.80;;;22.60;71.80;;;;;;5052156;28;20437;-84
2023/11/15 00:30:32;;;;;;;1.50;1.27;;;22.60;71.80;;;;;;5051714;28;20469;-85
2023/11/15 00:32:58;;;;;;;1.80;1.23;;;22.60;72.70;;;;;;5051733;28;20453;-84
2023/11/15 00:35:26;;;;;;;1.30;0.93;;;22.60;71.90;;;;;;5051941;28;20437;-82
2023/11/15 00:37:52;;;;;;;2.10;1.10;;;22.60;71.80;;;;;;5052209;28;20445;-83
2023/11/15 00:40:20;;;;;;;1.33;0.90;;;22.60;71.80;;;;;;5052126;28;20451;-84
2023/11/15 00:42:49;;;;;;;1.33;0.93;;;22.60;71.90;;;;;;5054877;28;20503;-85
2023/11/15 00:45:16;;;;;;;1.20;1.00;;;22.50;71.60;;;;;;5056109;28;20439;-84
2023/11/15 00:47:43;;;;;;;1.93;1.00;;;22.50;71.70;;;;;;5056054;28;20543;-84
2023/11/15 00:50:10;;;;;;;1.10;0.80;;;22.50;71.70;;;;;;5056354;28;20448;-82
2023/11/15 00:52:37;;;;;;;1.60;1.00;;;22.50;71.60;;;;;;5056076;28;20437;-84
2023/11/15 00:55:05;;;;;;;1.77;1.20;;;22.50;71.60;;;;;;5055912;28;20444;-82
2023/11/15 00:57:31;;;;;;;1.53;1.30;;;22.50;71.70;;;;;;5055959;28;20521;-83
2023/11/15 01:00:00;;;;;;;1.27;0.90;;;22.50;71.70;;;;;;5055899;28;20522;-83
2023/11/15 01:02:29;;;;;;;1.10;0.90;;;22.50;71.70;;;;;;5055771;28;20438;-94
2023/11/15 01:04:57;;;;;;;1.53;1.20;;;22.50;71.80;;;;;;5055727;28;20532;-85
2023/11/15 01:07:24;;;;;;;1.43;0.80;;;22.50;71.80;;;;;;5055932;28;20503;-84
2023/11/15 01:09:51;;;;;;;1.50;1.10;;;22.50;71.80;;;;;;5055638;28;20459;-85
2023/11/15 01:12:18;;;;;;;1.70;1.00;;;22.40;71.70;;;;;;5055448;28;20988;-84
2023/11/15 01:14:45;;;;;;;1.33;0.80;;;22.40;71.70;;;;;;5054932;28;20441;-84
2023/11/15 01:17:14;;;;;;;2.53;0.90;;;22.40;71.80;;;;;;5055223;28;20473;-82
2023/11/15 01:19:40;;;;;;;1.50;1.00;;;22.40;71.70;;;;;;5055168;28;20855;-83
2023/11/15 01:22:08;;;;;;;1.10;0.80;;;22.40;71.70;;;;;;5055193;28;20440;-85
2023/11/15 01:24:37;;;;;;;1.20;0.87;;;22.40;71.70;;;;;;5054786;28;20510;-84
2023/11/15 01:27:06;;;;;;;2.07;0.80;;;22.50;71.80;;;;;;5054750;28;20520;-84
2023/11/15 01:29:37;;;;;;;1.40;0.93;;;22.40;71.70;;;;;;5055601;28;20450;-85
2023/11/15 01:32:04;;;;;;;2.00;1.37;;;22.40;71.70;;;;;;5055165;28;20462;-84
2023/11/15 01:34:33;;;;;;;1.40;0.83;;;22.40;71.80;;;;;;5054660;28;20804;-84
2023/11/15 01:37:00;;;;;;;1.63;1.00;;;22.40;71.80;;;;;;5055042;28;20433;-84
2023/11/15 01:39:28;;;;;;;2.03;1.07;;;22.40;71.80;;;;;;5055106;28;20436;-84
2023/11/15 01:41:56;;;;;;;1.20;0.80;;;22.40;71.80;;;;;;5055193;28;20499;-84
2023/11/15 01:44:24;;;;;;;1.73;0.90;;;22.40;71.90;;;;;;5054950;28;20475;-84
2023/11/15 01:46:53;;;;;;;1.10;0.80;;;22.40;71.90;;;;;;5054831;28;20542;-84
2023/11/15 01:49:21;;;;;;;1.03;0.77;;;22.30;71.80;;;;;;5054850;28;20448;-85
2023/11/15 01:51:51;;;;;;;1.90;1.03;;;22.40;72.00;;;;;;5054669;28;20429;-84
2023/11/15 01:54:19;;;;;;;1.20;0.90;;;22.40;72.00;;;;;;5054558;28;20433;-85
2023/11/15 01:56:46;;;;;;;1.70;1.23;;;22.40;72.00;;;;;;5054945;28;20881;-85
2023/11/15 01:59:14;;;;;;;1.20;0.90;;;22.30;71.90;;;;;;5054571;28;20437;-84
2023/11/15 02:01:41;;;;;;;1.13;0.80;;;22.30;71.90;;;;;;5054837;28;20457;-85
2023/11/15 02:04:09;;;;;;;1.10;0.90;;;22.40;72.00;;;;;;5054808;28;20433;-84
2023/11/15 02:06:37;;;;;;;1.10;0.90;;;22.40;71.80;;;;;;5054410;28;20477;-84
2023/11/15 02:09:06;;;;;;;1.20;0.87;;;22.40;71.70;;;;;;5054428;28;20441;-85
2023/11/15 02:11:32;;;;;;;2.07;1.00;;;22.40;71.70;;;;;;5054451;28;20475;-85
2023/11/15 02:13:59;;;;;;;1.87;0.90;;;22.40;71.70;;;;;;5054444;28;20524;-94
2023/11/15 02:16:27;;;;;;;1.30;0.80;;;22.40;71.70;;;;;;5054704;28;20460;-85
2023/11/15 02:18:54;;;;;;;1.57;0.97;;;22.40;71.60;;;;;;5054441;28;20441;-85
2023/11/15 02:21:20;;;;;;;1.50;0.80;;;22.40;72.50;;;;;;5054372;28;20437;-84
2023/11/15 02:23:50;;;;;;;1.63;1.03;;;22.40;71.70;;;;;;5054431;28;20441;-84
2023/11/15 02:26:19;;;;;;;1.33;0.97;;;22.40;71.70;;;;;;5054337;28;20568;-84
2023/11/15 02:28:46;;;;;;;1.20;0.87;;;22.40;72.50;;;;;;5054213;28;20450;-85
2023/11/15 02:31:13;;;;;;;1.20;0.80;;;22.40;71.60;;;;;;5054122;28;20460;-84
2023/11/15 02:33:39;;;;;;;1.10;0.90;;;22.40;71.60;;;;;;5053399;28;20819;-84
2023/11/15 02:36:08;;;;;;;1.20;0.80;;;22.40;71.60;;;;;;5053952;28;20448;-84
2023/11/15 02:38:35;;;;;;;1.80;0.93;;;22.40;71.60;;;;;;5054041;28;20456;-84
2023/11/15 02:41:04;;;;;;;1.10;0.80;;;22.40;71.50;;;;;;5053989;28;20476;-85
2023/11/15 02:43:31;;;;;;;1.37;1.00;;;22.40;71.60;;;;;;5053878;28;20442;-84
2023/11/15 02:45:58;;;;;;;1.20;0.80;;;22.40;71.50;;;;;;5054454;28;20436;-84
2023/11/15 02:48:26;;;;;;;1.30;0.80;;;22.40;71.50;;;;;;5053817;28;21097;-85
2023/11/15 02:50:53;;;;;;;1.37;0.70;;;22.40;71.50;;;;;;5054145;28;20449;-85
2023/11/15 02:53:20;;;;;;;1.77;1.00;;;22.40;71.40;;;;;;5053855;28;20445;-84
2023/11/15 02:55:47;;;;;;;1.10;0.73;;;22.40;71.40;;;;;;5053768;28;20449;-86
2023/11/15 02:58:15;;;;;;;1.20;0.70;;;22.40;71.40;;;;;;5053878;28;20441;-84
2023/11/15 03:00:42;;;;;;;1.47;1.00;;;22.40;71.50;;;;;;5053552;28;20452;-93
2023/11/15 03:03:09;;;;;;;2.80;1.13;;;22.40;71.40;;;;;;5053625;28;20794;-84
2023/11/15 03:05:36;;;;;;;1.40;1.00;;;22.40;71.50;;;;;;5052927;28;20780;-84
2023/11/15 03:08:03;;;;;;;1.30;1.00;;;22.40;71.50;;;;;;5053465;28;20512;-84
2023/11/15 03:10:30;;;;;;;3.10;0.90;;;22.40;71.40;;;;;;5053459;28;20447;-84
2023/11/15 03:12:57;;;;;;;1.10;0.70;;;22.40;71.40;;;;;;5053592;28;20469;-84
2023/11/15 03:15:25;;;;;;;1.23;0.83;;;22.40;71.40;;;;;;5053539;28;20529;-84
2023/11/15 03:17:52;;;;;;;1.23;0.90;;;22.40;71.40;;;;;;5053223;28;20449;-85
2023/11/15 03:20:18;;;;;;;1.10;1.00;;;22.40;71.40;;;;;;5053751;28;20448;-85
2023/11/15 03:22:45;;;;;;;1.30;1.00;;;22.40;72.10;;;;;;5053377;28;20437;-84
2023/11/15 03:25:12;;;;;;;1.20;1.00;;;22.50;71.30;;;;;;5053463;28;20438;-85
2023/11/15 03:27:39;;;;;;;1.47;0.90;;;22.50;71.30;;;;;;5053303;28;20484;-85
2023/11/15 03:30:07;;;;;;;1.27;0.90;;;22.50;71.30;;;;;;5053237;28;20453;-84
2023/11/15 03:32:35;;;;;;;2.17;1.03;;;22.50;71.20;;;;;;5053202;28;20443;-84
2023/11/15 03:35:01;;;;;;;1.17;0.80;;;22.50;71.30;;;;;;5052367;28;20520;-85
2023/11/15 03:37:28;;;;;;;2.50;0.90;;;22.50;71.40;;;;;;5053045;28;20445;-85
2023/11/15 03:39:55;;;;;;;1.20;1.00;;;22.50;71.40;;;;;;5053169;28;20285;-85
2023/11/15 03:42:22;;;;;;;1.10;0.80;;;22.50;71.40;;;;;;5052969;28;20524;-84
2023/11/15 03:44:49;;;;;;;1.60;1.00;;;22.50;71.30;;;;;;5053237;28;20440;-84
2023/11/15 03:47:16;;;;;;;1.20;1.10;;;22.50;71.40;;;;;;5052987;28;20511;-84
2023/11/15 03:49:44;;;;;;;1.50;1.10;;;22.50;71.30;;;;;;5052885;28;20441;-84
2023/11/15 03:52:11;;;;;;;1.53;1.20;;;22.50;71.40;;;;;;5053112;28;20429;-85
2023/11/15 03:54:39;;;;;;;1.10;0.80;;;22.50;71.40;;;;;;5053068;28;20442;-85
2023/11/15 03:57:07;;;;;;;1.33;0.80;;;22.40;71.20;;;;;;5053007;28;20447;-94
2023/11/15 03:59:34;;;;;;;1.20;0.90;;;22.50;71.30;;;;;;5052787;28;20928;-84
2023/11/15 04:02:01;;;;;;;1.30;1.13;;;22.50;71.40;;;;;;5053036;28;20540;-84
2023/11/15 04:04:28;;;;;;;1.43;0.90;;;22.50;71.30;;;;;;5052976;28;20442;-85
2023/11/15 04:06:56;;;;;;;1.10;0.87;;;22.50;71.30;;;;;;5052834;28;20477;-85
2023/11/15 04:09:23;;;;;;;1.37;0.90;;;22.50;71.20;;;;;;5052952;28;20450;-85
2023/11/15 04:11:50;;;;;;;1.40;0.80;;;22.50;71.20;;;;;;5052694;28;20526;-93
2023/11/15 04:14:17;;;;;;;1.10;0.90;;;22.50;71.20;;;;;;5052946;28;20459;-93
2023/11/15 04:16:44;;;;;;;1.10;0.90;;;22.50;71.30;;;;;;5055290;28;20437;-84
2023/11/15 04:19:11;;;;;;;1.13;0.80;;;22.50;71.30;;;;;;5056455;28;20467;-84
2023/11/15 04:21:38;;;;;;;1.23;0.73;;;22.50;71.30;;;;;;5056892;28;20441;-84
2023/11/15 04:24:07;;;;;;;1.60;0.90;;;22.50;71.30;;;;;;5056704;28;20438;-84
2023/11/15 04:26:34;;;;;;;1.00;0.80;;;22.50;71.30;;;;;;5056588;28;20476;-84
2023/11/15 04:29:01;;;;;;;1.10;0.80;;;22.40;71.20;;;;;;5056359;28;20803;-84
2023/11/15 04:31:27;;;;;;;1.37;0.90;;;22.40;71.10;;;;;;5056628;28;20467;-84
2023/11/15 04:33:55;;;;;;;1.60;0.87;;;22.50;71.30;;;;;;5055584;28;20475;-84
2023/11/15 04:36:22;;;;;;;1.10;0.80;;;22.40;71.10;;;;;;5056342;28;20552;-84
2023/11/15 04:38:48;;;;;;;1.30;0.90;;;22.50;71.30;;;;;;5056261;28;20477;-84
2023/11/15 04:41:17;;;;;;;2.80;1.10;;;22.50;71.30;;;;;;5056108;28;20429;-90
2023/11/15 04:43:43;;;;;;;1.10;0.80;;;22.50;71.30;;;;;;5056132;28;20815;-84
2023/11/15 04:46:10;;;;;;;1.13;0.90;;;22.40;71.10;;;;;;5056234;28;20441;-85
2023/11/15 04:48:38;;;;;;;1.10;0.90;;;22.50;71.20;;;;;;5055983;28;20495;-85
2023/11/15 04:51:06;;;;;;;1.40;1.03;;;22.40;71.20;;;;;;5056205;28;20443;-85
2023/11/15 04:53:33;;;;;;;1.20;1.00;;;22.40;71.10;;;;;;5056114;28;20449;-84
2023/11/15 04:56:00;;;;;;;1.20;1.10;;;22.50;71.20;;;;;;5056002;28;20444;-86
2023/11/15 04:58:28;;;;;;;1.00;0.80;;;22.40;71.10;;;;;;5055926;28;20441;-85
2023/11/15 05:00:55;;;;;;;1.30;0.93;;;22.40;71.20;;;;;;5055746;28;20453;-92
2023/11/15 05:03:22;;;;;;;1.17;0.90;;;22.50;71.30;;;;;;5055792;28;20445;-86
2023/11/15 05:05:49;;;;;;;1.30;0.80;;;22.50;71.20;;;;;;5055976;28;20475;-85
2023/11/15 05:08:15;;;;;;;1.10;0.83;;;22.50;71.30;;;;;;5055524;28;20485;-93
2023/11/15 05:10:42;;;;;;;1.37;0.83;;;22.50;71.20;;;;;;5055426;28;20528;-84
2023/11/15 05:13:09;;;;;;;1.10;0.90;;;22.60;71.30;;;;;;5055432;28;20421;-85
2023/11/15 05:15:37;;;;;;;1.40;1.10;;;22.50;71.20;;;;;;5055010;28;20453;-85
2023/11/15 05:18:04;;;;;;;1.23;0.90;;;22.50;71.20;;;;;;5055363;28;20438;-84
2023/11/15 05:20:31;;;;;;;1.93;1.00;;;22.50;71.90;;;;;;5055337;28;20444;-84
2023/11/15 05:22:58;;;;;;;1.17;0.90;;;22.50;71.00;;;;;;5053388;28;20442;-84
2023/11/15 05:25:25;;;;;;;1.57;0.80;;;22.50;71.10;;;;;;5055411;28;20441;-85
2023/11/15 05:27:53;;;;;;;1.20;0.83;;;22.50;71.10;;;;;;5054457;28;20583;-84
2023/11/15 05:30:20;;;;;;;1.20;0.90;;;22.50;70.90;;;;;;5055257;28;20500;-83
2023/11/15 05:32:48;;;;;;;1.40;1.10;;;22.70;71.20;;;;;;5055419;28;20788;-87
2023/11/15 05:35:15;;;;;;;1.17;0.83;;;22.60;71.00;;;;;;5054868;28;20535;-84
2023/11/15 05:37:41;;;;;;;1.30;1.00;;;22.60;70.90;;;;;;5055003;28;20468;-84
2023/11/15 05:40:12;;;;;;;1.27;0.80;;;22.60;70.90;;;;;;5054973;28;20446;-85
2023/11/15 05:42:40;;;;;;;1.37;0.90;;;22.60;70.90;;;;;;5055096;28;20932;-85
2023/11/15 05:45:07;;;;;;;1.40;0.80;;;22.60;70.90;;;;;;5054953;28;20495;-85
2023/11/15 05:47:34;;;;;;;1.27;0.97;;;22.60;70.90;;;;;;5055019;28;20568;-84
2023/11/15 05:50:03;;;;;;;1.10;0.80;;;22.60;70.90;;;;;;5055000;28;20434;-85
2023/11/15 05:52:30;;;;;;;1.43;0.90;;;22.60;70.90;;;;;;5054848;28;20445;-84
2023/11/15 05:54:57;;;;;;;1.60;0.90;;;22.60;70.80;;;;;;5054951;28;20444;-85
2023/11/15 05:57:23;;;;;;;1.50;1.27;;;22.60;70.80;;;;;;5054632;28;20445;-84
2023/11/15 05:59:50;;;;;;;1.17;0.80;;;22.70;70.90;;;;;;5054930;28;20461;-85
2023/11/15 06:02:17;;;;;;;1.53;1.00;;;22.60;70.90;;;;;;5054703;28;20449;-84
2023/11/15 06:04:44;;;;;;;1.67;0.97;;;22.60;71.20;;;;;;5054621;28;20437;-84
2023/11/15 06:07:12;;;;;;;1.70;1.03;;;22.60;70.90;;;;;;5054577;28;20446;-93
2023/11/15 06:09:38;;;;;;;1.20;0.97;;;22.60;70.90;;;;;;5053852;28;20453;-93
2023/11/15 06:12:06;;;;;;;1.40;1.03;;;22.70;70.90;;;;;;5054426;28;20501;-84
2023/11/15 06:14:33;;;;;;;1.57;1.00;;;22.70;70.90;;;;;;5054350;28;20443;-85
2023/11/15 06:17:00;;;;;;;1.40;0.90;;;22.70;70.80;;;;;;5054407;28;20432;-84
2023/11/15 06:19:26;;;;;;;2.40;1.00;;;22.70;70.80;;;;;;5054402;28;20441;-85
2023/11/15 06:21:53;;;;;;;1.23;1.00;;;22.70;70.90;;;;;;5054608;28;20433;-84
2023/11/15 06:24:22;;;;;;;1.67;0.87;;;22.70;70.80;;;;;;5054324;28;20429;-93
2023/11/15 06:26:51;;;;;;;1.10;0.90;;;22.70;70.80;;;;;;5054317;28;20434;-84
2023/11/15 06:29:21;;;;;;;1.23;0.80;;;22.70;70.70;;;;;;5054230;28;20489;-85
2023/11/15 06:31:49;;;;;;;1.30;0.80;;;22.70;70.70;;;;;;5054082;28;20459;-85
2023/11/15 06:34:16;;;;;;;1.13;0.90;;;22.70;70.70;;;;;;5053734;28;20453;-85
2023/11/15 06:36:44;;;;;;;1.30;1.07;;;22.70;70.80;;;;;;5053989;28;20830;-91
2023/11/15 06:39:12;;;;;;;1.70;1.10;;;22.70;70.80;;;;;;5053802;28;20516;-85
2023/11/15 06:41:40;;;;;;;1.50;1.00;;;22.70;70.90;;;;;;5054503;28;20448;-93
2023/11/15 06:44:07;;;;;;;2.13;1.10;;;22.70;70.90;;;;;;5053904;28;20592;-84
2023/11/15 06:46:38;;;;;;;1.67;0.90;;;22.70;70.90;;;;;;5053981;28;20437;-92
2023/11/15 06:49:05;;;;;;;1.97;1.20;;;22.70;70.90;;;;;;5053933;28;20530;-84
2023/11/15 06:51:32;;;;;;;1.10;0.80;;;22.70;70.80;;;;;;5053781;28;20437;-87
2023/11/15 06:53:59;;;;;;;1.50;1.10;;;22.70;70.90;;;;;;5053723;28;20441;-85
2023/11/15 06:56:26;;;;;;;1.10;0.90;;;22.70;70.80;;;;;;5053608;28;20932;-92
2023/11/15 06:58:54;;;;;;;1.20;0.87;;;22.70;70.80;;;;;;5054059;28;20936;-85
2023/11/15 07:01:21;;;;;;;1.40;0.80;;;22.70;70.50;;;;;;5053397;28;20464;-84
2023/11/15 07:03:49;;;;;;;1.40;1.00;;;22.70;70.50;;;;;;5053741;28;20433;-85
2023/11/15 07:06:16;;;;;;;9.17;1.30;;;22.80;70.70;;;;;;5053378;28;20479;-87
2023/11/15 07:08:42;;;;;;;1.43;0.90;;;22.70;69.60;;;;;;5053383;28;20484;-85
2023/11/15 07:11:10;;;;;;;1.80;1.00;;;22.70;69.90;;;;;;5052931;28;20479;-84
2023/11/15 07:13:36;;;;;;;1.70;0.90;;;22.70;70.20;;;;;;5053508;28;20535;-89
2023/11/15 07:16:07;;;;;;;1.53;1.00;;;22.70;70.30;;;;;;5053868;28;20785;-84
2023/11/15 07:18:34;;;;;;;1.70;1.10;;;22.70;70.50;;;;;;5053238;28;20446;-84
2023/11/15 07:21:01;;;;;;;1.30;1.00;;;22.70;70.30;;;;;;5053490;28;20444;-84
2023/11/15 07:23:27;;;;;;;1.97;1.00;;;22.70;70.20;;;;;;5052950;28;20446;-84
2023/11/15 07:25:55;;;;;;;1.50;1.10;;;22.70;70.40;;;;;;5052852;28;20442;-85
2023/11/15 07:28:23;;;;;;;1.30;0.90;;;22.80;70.50;;;;;;5052955;28;20485;-93
2023/11/15 07:30:50;;;;;;;1.67;1.00;;;22.80;70.40;;;;;;5052989;28;20505;-85
2023/11/15 07:33:20;;;;;;;1.80;1.10;;;22.80;70.40;;;;;;5053300;28;20453;-91
2023/11/15 07:35:47;;;;;;;1.40;1.00;;;22.80;69.80;;;;;;5034596;28;20541;-85
2023/11/15 07:38:14;;;;;;;2.93;1.13;;;22.70;68.40;;;;;;5049756;28;20446;-85
2023/11/15 07:40:42;;;;;;;5.00;1.00;;;22.70;69.40;;;;;;5053304;28;20467;-84
2023/11/15 07:43:10;;;;;;;2.67;1.20;;;22.70;70.30;;;;;;5053096;28;20798;-84
2023/11/15 07:45:38;;;;;;;1.10;0.90;;;22.70;70.40;;;;;;5053247;28;20939;-85
2023/11/15 07:48:10;;;;;;;1.30;0.93;;;22.80;70.40;;;;;;5052815;28;20473;-84
2023/11/15 07:51:03;;;;;;;4.63;1.23;;;22.80;70.40;;;;;;5055072;28;20539;-93
2023/11/15 07:53:32;;;;;;;3.53;1.30;;;22.80;69.80;;;;;;5055541;28;20511;-96
2023/11/15 07:56:02;;;;;;;1.70;0.90;;;22.70;68.10;;;;;;5060613;28;20451;-91
2023/11/15 07:58:29;;;;;;;2.20;1.57;;;22.70;68.60;;;;;;5042013;28;20446;-87
2023/11/15 08:00:56;;;;;;;3.37;1.50;;;22.70;69.00;;;;;;5051404;28;20483;-87
2023/11/15 08:03:23;;;;;;;1.43;0.90;;;22.60;69.90;;;;;;5055419;28;20441;-87
2023/11/15 08:05:50;;;;;;;1.57;1.07;;;22.60;70.30;;;;;;5055170;28;20473;-87
2023/11/15 08:08:19;;;;;;;2.57;0.80;;;22.70;70.70;;;;;;5054827;28;20837;-87
2023/11/15 08:10:48;;;;;;;2.53;1.00;;;22.70;70.50;;;;;;5056200;28;20488;-86
2023/11/15 08:13:19;;;;;;;2.00;1.10;;;22.70;70.50;;;;;;5060513;28;20534;-85
2023/11/15 08:15:46;;;;;;;1.50;0.93;;;22.70;70.70;;;;;;5055731;28;20453;-84
2023/11/15 08:18:13;;;;;;;1.10;0.90;;;22.70;70.70;;;;;;5056665;28;20475;-86
2023/11/15 08:20:41;;;;;;;1.53;1.00;;;22.80;70.60;;;;;;5057940;28;20507;-86
2023/11/15 08:23:10;;;;;;;1.30;0.90;;;22.80;70.70;;;;;;5055207;28;20511;-87
2023/11/15 08:25:40;;;;;;;1.83;1.47;;;22.80;70.70;;;;;;5057101;28;20548;-87
2023/11/15 08:28:09;;;;;;;1.63;1.07;;;22.80;70.80;;;;;;5056046;28;20468;-87
2023/11/15 08:30:36;;;;;;;1.50;1.10;;;22.80;70.70;;;;;;5066160;22;20485;-84
2023/11/15 08:33:05;;;;;;;1.20;0.80;;;22.80;70.70;;;;;;5054116;28;20441;-85
2023/11/15 08:35:32;;;;;;;4.60;1.83;;;22.80;70.70;;;;;;5054228;28;20564;-88
2023/11/15 08:37:59;;;;;;;9.37;1.30;;;22.80;68.80;;;;;;5053968;28;20448;-88
2023/11/15 08:40:26;;;;;;;2.50;1.03;;;22.70;68.30;;;;;;5053949;28;20433;-88
2023/11/15 08:42:54;;;;;;;2.80;1.10;;;22.70;68.40;;;;;;5053817;28;20447;-88
2023/11/15 08:45:21;;;;;;;3.97;1.20;;;22.60;68.30;;;;;;5054000;28;20471;-88
2023/11/15 08:47:48;;;;;;;1.30;1.10;;;22.70;68.40;;;;;;5053745;28;20442;-88
2023/11/15 08:50:15;;;;;;;2.53;1.37;;;22.60;68.40;;;;;;5053587;28;20493;-89
2023/11/15 08:52:42;;;;;;;1.77;1.37;;;22.50;68.50;;;;;;5055600;28;20433;-88
2023/11/15 08:55:11;;;;;;;1.20;1.10;;;22.40;68.50;;;;;;5056020;28;20861;-91
2023/11/15 08:57:38;;;;;;;1.23;1.03;;;22.50;68.70;;;;;;5055917;28;20433;-88
2023/11/15 09:00:12;;;;;;;1.33;0.87;;;22.40;68.60;;;;;;5055706;28;20464;-88
2023/11/15 09:02:41;;;;;;;2.13;1.20;;;22.40;68.60;;;;;;5054517;28;20441;-92
2023/11/15 09:05:08;;;;;;;2.73;1.53;;;22.30;68.60;;;;;;5055754;28;20936;-88
2023/11/15 09:07:37;;;;;;;2.73;1.33;;;22.30;69.50;;;;;;5055527;28;20436;-88
2023/11/15 09:10:08;;;;;;;3.00;1.63;;;22.30;68.70;;;;;;5055436;28;20496;-92
2023/11/15 09:12:35;;;;;;;3.43;1.30;;;22.30;68.70;;;;;;5055715;28;20437;-88
2023/11/15 09:15:11;;;;;;;4.60;1.70;;;22.30;68.70;;;;;;5055558;28;21019;-88
2023/11/15 09:17:46;;;;;;;2.47;1.00;;;22.30;68.70;;;;;;5055440;28;20429;-88
2023/11/15 09:20:17;;;;;;;1.40;1.07;;;22.30;68.70;;;;;;5055365;28;20443;-89
2023/11/15 09:22:45;;;;;;;4.10;1.33;;;22.20;68.80;;;;;;5055336;28;20449;-89
2023/11/15 09:25:20;;;;;;;8.20;1.43;;;22.30;68.90;;;;;;5056098;28;20437;-92
2023/11/15 09:27:46;;;;;;;4.67;1.50;;;22.30;69.20;;;;;;5042507;28;20524;-89
2023/11/15 09:30:14;;;;;;;1.60;1.20;;;22.30;68.70;;;;;;5058127;28;20492;-90
2023/11/15 09:32:42;;;;;;;1.23;0.93;;;22.30;68.50;;;;;;5059913;28;20445;-90
2023/11/15 09:35:10;;;;;;;1.30;1.00;;;22.30;68.30;;;;;;5056926;28;20524;-86
2023/11/15 09:37:38;;;;;;;2.03;1.83;;;22.30;68.70;;;;;;5058176;28;20468;-83
2023/11/15 09:40:10;;;;;;;8.23;3.23;;;22.40;69.10;;;;;;5059122;28;20445;-83
2023/11/15 09:42:42;;;;;;;11.87;4.27;;;22.50;69.70;;;;;;5058999;28;20929;-86
2023/11/15 09:45:16;;;;;;;13.80;5.67;;;22.60;70.50;;;;;;5058020;28;20772;-85
2023/11/15 09:47:46;;;;;;;14.30;6.77;;;22.70;71.20;;;;;;5057745;28;20520;-86
2023/11/15 09:50:17;;;;;;;18.00;9.50;;;22.70;72.50;;;;;;5058579;28;20485;-86
2023/11/15 09:52:47;;;;;;;16.57;8.13;;;22.80;72.20;;;;;;5059581;28;20438;-96
2023/11/15 09:55:14;;;;;;;21.07;7.20;;;22.90;72.40;;;;;;5068256;28;20495;-96
2023/11/15 09:57:43;;;;;;;9.80;6.03;;;22.80;72.40;;;;;;5058554;28;20500;-91
2023/11/15 10:10:28;;;;;;;7.47;4.33;;;22.80;72.00;;;;;;5094482;28;20480;-91
2023/11/15 10:12:55;;;;;;;13.37;4.87;;;22.80;69.60;;;;;;5097532;28;20464;-96
2023/11/15 10:15:33;;;;;;;9.67;5.27;;;22.80;70.70;;;;;;5096653;28;20469;-96
2023/11/15 10:18:03;;;;;;;10.17;5.27;;;22.80;71.20;;;;;;5096819;28;20432;-96
2023/11/15 10:20:30;;;;;;;15.30;5.43;;;22.80;71.50;;;;;;5096886;28;20443;-96
2023/11/15 10:22:57;;;;;;;8.37;5.40;;;22.90;71.50;;;;;;5097578;28;20501;-96
2023/11/15 10:25:26;;;;;;;12.30;5.27;;;22.90;71.50;;;;;;5095728;28;20448;-84
2023/11/15 10:27:55;;;;;;;11.83;5.33;;;23.00;71.30;;;;;;5095347;28;20462;-87
2023/11/15 10:30:22;;;;;;;13.23;5.63;;;23.10;71.10;;;;;;5094938;28;20840;-86
2023/11/15 10:32:51;;;;;;;9.27;5.27;;;23.20;71.00;;;;;;5096071;28;20934;-84
2023/11/15 10:35:28;;;;;;;9.77;5.27;;;23.20;70.70;;;;;;5095932;28;20919;-88
2023/11/15 10:37:55;;;;;;;11.87;4.87;;;23.20;70.60;;;;;;5094508;28;20427;-88
2023/11/15 10:40:25;;;;;;;8.67;4.47;;;23.20;70.80;;;;;;5094428;28;20449;-86
2023/11/15 10:42:54;;;;;;;8.07;3.93;;;23.20;70.70;;;;;;5094240;28;20444;-85
2023/11/15 10:45:27;;;;;;;12.27;5.50;;;23.20;70.90;;;;;;5094292;28;20489;-90
2023/11/15 10:47:58;;;;;;;8.37;3.97;;;23.20;70.80;;;;;;5093889;28;20531;-90
2023/11/15 10:50:28;;;;;;;4.23;2.70;;;23.10;69.50;;;;;;5093759;28;20896;-89
2023/11/15 10:52:54;;;;;;;5.77;3.37;;;23.00;68.60;;;;;;5093978;28;20466;-90
2023/11/15 10:55:23;;;;;;;6.13;3.20;;;23.00;68.70;;;;;;5093865;28;20436;-90
2023/11/15 10:57:51;;;;;;;7.03;2.90;;;22.90;68.70;;;;;;5093700;28;20533;-84
2023/11/15 11:00:21;;;;;;;7.07;3.83;;;22.90;68.90;;;;;;5093919;28;20442;-96
2023/11/15 11:02:51;;;;;;;7.27;3.70;;;22.80;69.50;;;;;;5094232;28;20500;-85
2023/11/15 11:05:28;;;;;;;5.57;3.60;;;22.90;70.10;;;;;;5093785;28;21013;-95
2023/11/15 11:08:05;;;;;;;7.53;3.40;;;22.90;70.30;;;;;;5094121;28;20466;-85
2023/11/15 11:10:40;;;;;;;5.33;3.37;;;23.00;70.40;;;;;;5093600;28;20842;-89
2023/11/15 11:13:18;;;;;;;6.87;3.67;;;23.00;70.40;;;;;;5094136;28;20811;-85
2023/11/15 11:15:49;;;;;;;8.87;3.63;;;23.10;70.30;;;;;;5093799;28;20515;-85
2023/11/15 11:18:18;;;;;;;10.17;4.10;;;23.10;70.40;;;;;;5093533;28;20449;-85
2023/11/15 11:20:56;;;;;;;5.37;3.53;;;23.10;70.40;;;;;;5093756;28;20443;-85
2023/11/15 11:23:23;;;;;;;7.50;2.93;;;23.10;70.30;;;;;;5093729;28;20435;-85
2023/11/15 11:25:52;;;;;;;7.17;3.60;;;23.10;70.30;;;;;;5093043;28;20449;-85
2023/11/15 11:28:20;;;;;;;6.60;3.20;;;23.10;70.40;;;;;;5093607;28;20475;-85
2023/11/15 11:31:17;;;;;;;6.57;3.47;;;23.10;70.40;;;;;;5093369;28;20495;-85
2023/11/15 11:34:08;;;;;;;5.00;2.93;;;23.10;70.40;;;;;;5093700;28;20467;-96
2023/11/15 11:36:49;;;;;;;8.43;3.43;;;23.10;70.40;;;;;;5093701;28;20439;-85
2023/11/15 11:39:21;;;;;;;4.00;2.43;;;23.10;70.50;;;;;;5093759;28;20447;-85
2023/11/15 11:41:49;;;;;;;3.10;2.80;;;23.10;70.40;;;;;;5094133;28;20443;-85
2023/11/15 11:44:18;;;;;;;7.33;3.10;;;23.20;70.50;;;;;;5093840;28;20505;-96
2023/11/15 11:47:02;;;;;;;8.60;3.67;;;23.20;70.40;;;;;;5093738;28;20435;-85
2023/11/15 11:49:45;;;;;;;4.50;2.70;;;23.30;70.40;;;;;;5097264;28;20473;-96
2023/11/15 11:52:14;;;;;;;5.30;3.10;;;23.30;69.50;;;;;;5100665;28;20420;-96
2023/11/15 11:54:41;;;;;;;3.83;2.80;;;23.30;70.20;;;;;;5099911;28;20553;-85
2023/11/15 11:57:08;;;;;;;5.30;2.70;;;23.30;70.10;;;;;;5096097;28;20495;-84
2023/11/15 11:59:35;;;;;;;4.87;2.60;;;23.30;70.10;;;;;;5101849;28;20871;-85
2023/11/15 12:02:03;;;;;;;7.73;3.13;;;23.40;70.20;;;;;;5100720;28;20474;-86
2023/11/15 12:04:42;;;;;;;3.80;2.40;;;23.40;70.10;;;;;;5099990;28;20434;-87
2023/11/15 12:07:09;;;;;;;6.07;2.97;;;23.40;70.10;;;;;;5100489;28;20453;-86
2023/11/15 12:09:41;;;;;;;3.63;1.80;;;23.40;70.10;;;;;;5100186;28;20536;-89
2023/11/15 12:12:08;;;;;;;5.20;2.80;;;23.40;70.10;;;;;;5101802;28;20436;-85
2023/11/15 12:14:48;;;;;;;4.60;2.73;;;23.40;70.10;;;;;;5101010;28;20526;-85
2023/11/15 12:17:16;;;;;;;3.67;2.73;;;23.50;70.20;;;;;;5101159;28;20463;-94
2023/11/15 12:19:43;;;;;;;3.83;2.63;;;23.40;70.00;;;;;;5101359;28;20432;-86
2023/11/15 12:22:11;;;;;;;5.53;2.63;;;23.40;70.10;;;;;;5100364;28;20442;-95
2023/11/15 12:24:38;;;;;;;9.50;2.57;;;23.40;70.10;;;;;;5095595;28;20446;-90
2023/11/15 12:27:05;;;;;;;6.57;3.30;;;23.40;70.20;;;;;;5093226;28;20448;-89
2023/11/15 12:29:35;;;;;;;3.40;2.20;;;23.40;70.30;;;;;;5093412;28;20485;-92
2023/11/15 12:32:04;;;;;;;5.47;2.30;;;23.40;70.30;;;;;;5093208;28;20427;-93
2023/11/15 12:34:32;;;;;;;3.13;2.20;;;23.30;70.20;;;;;;5093733;28;20446;-91
2023/11/15 12:36:59;;;;;;;4.40;2.43;;;23.30;69.40;;;;;;5093267;28;20806;-86
2023/11/15 12:39:34;;;;;;;19.50;3.07;;;23.30;70.30;;;;;;5096524;28;21017;-91
2023/11/15 12:42:02;;;;;;;7.53;2.60;;;23.30;69.20;;;;;;5095410;28;20526;-85
2023/11/15 12:44:29;;;;;;;5.60;2.70;;;23.20;68.90;;;;;;5095872;28;20443;-85
2023/11/15 12:46:59;;;;;;;4.70;2.43;;;23.20;70.00;;;;;;5095177;28;20435;-85
2023/11/15 12:49:27;;;;;;;3.77;2.13;;;23.20;70.10;;;;;;5095237;28;20475;-84
2023/11/15 12:51:55;;;;;;;5.37;2.70;;;23.20;70.10;;;;;;5094396;28;20531;-85
2023/11/15 12:54:22;;;;;;;6.40;3.10;;;23.30;70.10;;;;;;5096473;28;20431;-85
2023/11/15 12:57:03;;;;;;;4.20;2.30;;;23.30;70.00;;;;;;5096089;28;20802;-85
2023/11/15 12:59:33;;;;;;;7.30;2.20;;;23.30;70.00;;;;;;5096818;28;20447;-85
2023/11/15 13:02:00;;;;;;;2.80;2.23;;;23.30;70.00;;;;;;5096129;28;20528;-85